createdAt,value
2023-11-24T00:02:20.217Z,99214.03
2023-11-24T00:07:23.380Z,99227.69
2023-11-24T00:12:26.728Z,99247.22
2023-11-24T00:17:31.251Z,99236.75
2023-11-24T00:22:34.435Z,99247.94
2023-11-24T00:27:38.529Z,99248.59
2023-11-24T00:32:44.942Z,99257.97
2023-11-24T00:37:48.289Z,99206.25
2023-11-24T00:42:51.557Z,99222.59
2023-11-24T00:47:56.131Z,99234.28
2023-11-24T00:52:59.560Z,99233.88
2023-11-24T00:58:02.703Z,99222.41
2023-11-24T01:03:07.749Z,99217.19
2023-11-24T01:08:13.093Z,99201.00
2023-11-24T01:13:22.197Z,99209.94
2023-11-24T01:18:29.070Z,99218.31
2023-11-24T01:23:32.652Z,99226.28
2023-11-24T01:28:36.686Z,99223.81
2023-11-24T01:33:44.652Z,99224.38
2023-11-24T01:38:50.751Z,99206.56
2023-11-24T01:43:59.987Z,99218.78
2023-11-24T01:49:06.050Z,99227.03
2023-11-24T01:54:09.662Z,99233.47
2023-11-24T01:59:16.933Z,99228.13
2023-11-24T02:04:22.323Z,99235.13
2023-11-24T02:09:28.504Z,99237.03
2023-11-24T02:14:31.786Z,99241.00
2023-11-24T02:19:58.369Z,99242.94
2023-11-24T02:25:23.333Z,99257.97
2023-11-24T02:30:42.698Z,99255.66
2023-11-24T02:35:45.965Z,99253.75
2023-11-24T02:40:51.871Z,99245.53
2023-11-24T02:46:14.650Z,99240.47
2023-11-24T02:51:21.140Z,99235.97
2023-11-24T02:56:25.750Z,99232.41
2023-11-24T03:01:28.979Z,99224.31
2023-11-24T03:06:32.307Z,99215.00
2023-11-24T03:11:37.285Z,99222.22
2023-11-24T03:16:41.573Z,99219.78
2023-11-24T03:21:44.932Z,99218.00
2023-11-24T03:26:49.544Z,99220.31
2023-11-24T03:31:52.772Z,99214.03
2023-11-24T03:36:55.914Z,99189.25
2023-11-24T03:42:00.498Z,99184.03
2023-11-24T03:47:03.659Z,99189.06
2023-11-24T03:52:07.684Z,99195.91
2023-11-24T03:57:12.697Z,99193.28
2023-11-24T04:02:16.093Z,99204.63
2023-11-24T04:07:19.480Z,99208.63
2023-11-24T04:12:24.410Z,99195.09
2023-11-24T04:17:27.582Z,99189.91
2023-11-24T04:22:30.993Z,99182.69
2023-11-24T04:27:35.860Z,99184.72
2023-11-24T04:32:39.321Z,99188.97
2023-11-24T04:37:42.777Z,99173.09
2023-11-24T04:42:47.434Z,99175.69
2023-11-24T04:47:50.878Z,99176.25
2023-11-24T04:52:54.248Z,99163.53
2023-11-24T04:57:59.082Z,99158.84
2023-11-24T05:03:02.564Z,99150.66
2023-11-24T05:08:06.233Z,99143.41
2023-11-24T05:13:11.277Z,99134.38
2023-11-24T05:18:14.606Z,99134.91
2023-11-24T05:23:17.995Z,99128.75
2023-11-24T05:28:22.888Z,99131.19
2023-11-24T05:33:26.172Z,99125.59
2023-11-24T05:38:29.451Z,99116.84
2023-11-24T05:43:35.316Z,99121.91
2023-11-24T05:48:39.006Z,99129.56
2023-11-24T05:53:42.853Z,99127.53
2023-11-24T05:58:47.888Z,99124.91
2023-11-24T06:03:52.731Z,99116.28
2023-11-24T06:08:56.431Z,99144.09
2023-11-24T06:14:03.943Z,99124.09
2023-11-24T06:19:07.628Z,99109.72
2023-11-24T06:24:28.865Z,99125.03
2023-11-24T06:29:42.407Z,99162.41
2023-11-24T06:34:46.173Z,99123.00
2023-11-24T06:39:52.186Z,99129.03
2023-11-24T06:44:59.593Z,99117.94
2023-11-24T06:50:05.868Z,99109.72
2023-11-24T06:55:17.561Z,99107.81
2023-11-24T07:00:23.931Z,99094.53
2023-11-24T07:05:31.537Z,99085.94
2023-11-24T07:10:35.043Z,99097.41
2023-11-24T07:15:42.275Z,99085.50
2023-11-24T07:20:50.582Z,99096.69
2023-11-24T07:25:55.617Z,99095.19
2023-11-24T07:31:05.478Z,99095.19
2023-11-24T07:36:20.952Z,99103.16
2023-11-24T07:46:55.917Z,99086.75
2023-11-24T07:51:59.245Z,99086.34
2023-11-24T07:57:02.620Z,99091.94
2023-11-24T08:02:11.399Z,99090.44
2023-11-24T08:07:14.875Z,99087.97
2023-11-24T08:12:20.338Z,99083.75
2023-11-24T08:17:25.193Z,99071.97
2023-11-24T08:22:29.731Z,99067.84
2023-11-24T08:27:33.052Z,99060.72
2023-11-24T08:32:37.974Z,99048.66
2023-11-24T08:37:41.682Z,99052.63
2023-11-24T08:42:46.101Z,99049.03
2023-11-24T08:47:50.955Z,99049.84
2023-11-24T08:52:54.158Z,99040.81
2023-11-24T08:58:00.810Z,99041.34
2023-11-24T09:03:09.036Z,99037.31
2023-11-24T09:08:12.404Z,99024.72
2023-11-24T09:13:17.531Z,99024.16
2023-11-24T09:18:25.417Z,99031.00
2023-11-24T09:23:28.688Z,99017.03
2023-11-24T09:28:35.745Z,99009.78
2023-11-24T09:33:43.189Z,99003.66
2023-11-24T09:38:47.876Z,98996.59
2023-11-24T09:43:51.752Z,98997.13
2023-11-24T09:48:57.099Z,98988.41
2023-11-24T09:54:04.334Z,98973.19
2023-11-24T09:59:10.273Z,98969.13
2023-11-24T10:04:15.873Z,98946.84
2023-11-24T10:09:26.332Z,98936.31
2023-11-24T10:14:29.733Z,98931.31
2023-11-24T10:19:34.540Z,98916.00
2023-11-24T10:24:39.284Z,98911.88
2023-11-24T10:29:42.673Z,98899.03
2023-11-24T10:34:48.810Z,98883.53
2023-11-24T10:39:55.899Z,98883.97
2023-11-24T10:45:05.475Z,98888.06
2023-11-24T10:50:13.958Z,98883.41
2023-11-24T10:55:18.682Z,98856.38
2023-11-24T11:00:24.848Z,98846.00
2023-11-24T11:05:43.950Z,98844.06
2023-11-24T11:11:07.581Z,98843.72
2023-11-24T11:16:15.197Z,98857.72
2023-11-24T11:21:38.647Z,98856.56
2023-11-24T11:26:50.216Z,98843.94
2023-11-24T11:31:54.086Z,98852.34
2023-11-24T11:37:13.933Z,98846.72
2023-11-24T11:42:17.755Z,98854.97
2023-11-24T11:47:24.013Z,98869.75
2023-11-24T11:52:32.626Z,98861.84
2023-11-24T11:57:37.370Z,98849.66
2023-11-24T12:02:41.168Z,98831.88
2023-11-24T12:07:49.645Z,98823.81
2023-11-24T12:12:53.898Z,98815.72
2023-11-24T12:17:58.426Z,98824.19
2023-11-24T12:23:05.386Z,98813.34
2023-11-24T12:28:11.059Z,98810.88
2023-11-24T12:33:20.930Z,98811.81
2023-11-24T12:38:26.104Z,98816.50
2023-11-24T12:43:34.767Z,98800.22
2023-11-24T12:48:41.456Z,98784.91
2023-11-24T12:53:48.135Z,98779.00
2023-11-24T12:58:52.207Z,98769.69
2023-11-24T13:03:55.564Z,98760.25
2023-11-24T13:09:01.161Z,98762.84
2023-11-24T13:14:04.817Z,98755.25
2023-11-24T13:19:09.253Z,98761.94
2023-11-24T13:24:14.889Z,98752.28
2023-11-24T13:29:18.321Z,98754.69
2023-11-24T13:34:22.206Z,98746.16
2023-11-24T13:39:30.400Z,98737.09
2023-11-24T13:44:35.951Z,98733.81
2023-11-24T13:49:40.654Z,98723.94
2023-11-24T13:54:45.249Z,98723.53
2023-11-24T13:59:48.950Z,98716.69
2023-11-24T14:04:52.366Z,98705.31
2023-11-24T14:09:57.805Z,98706.38
2023-11-24T14:15:02.174Z,98690.88
2023-11-24T14:20:08.333Z,98669.66
2023-11-24T14:25:15.290Z,98662.53
2023-11-24T14:30:19.744Z,98678.50
2023-11-24T14:35:23.025Z,98662.09
2023-11-24T14:40:30.056Z,98663.59
2023-11-24T14:45:34.591Z,98670.94
2023-11-24T14:50:38.023Z,98744.41
2023-11-24T14:55:42.761Z,98729.91
2023-11-24T15:00:46.248Z,98733.41
2023-11-24T15:05:56.118Z,98730.16
2023-11-24T15:11:05.915Z,98732.16
2023-11-24T15:16:13.632Z,98729.00
2023-11-24T15:21:29.404Z,98698.16
2023-11-24T15:26:37.356Z,98707.28
2023-11-24T15:31:44.996Z,98691.84
2023-11-24T15:36:50.014Z,98678.31
2023-11-24T15:41:55.085Z,98697.22
2023-11-24T15:46:58.498Z,98682.47
2023-11-24T15:52:03.657Z,98686.84
2023-11-24T15:57:10.243Z,98677.56
2023-11-24T16:02:16.660Z,98683.84
2023-11-24T16:07:22.905Z,98675.81
2023-11-24T16:12:33.625Z,98664.78
2023-11-24T16:17:36.860Z,98661.09
2023-11-24T16:22:40.255Z,98658.00
2023-11-24T16:27:44.819Z,98649.13
2023-11-24T16:32:49.301Z,98642.72
2023-11-24T16:37:52.957Z,98646.56
2023-11-24T16:42:58.186Z,98642.88
2023-11-24T16:48:01.819Z,98620.16
2023-11-24T16:53:06.120Z,98640.31
2023-11-24T16:58:11.780Z,98676.03
2023-11-24T17:03:15.342Z,98694.41
2023-11-24T17:08:20.935Z,98692.09
2023-11-24T17:13:26.417Z,98685.94
2023-11-24T17:18:29.782Z,98679.19
2023-11-24T17:23:34.250Z,98674.97
2023-11-24T17:28:39.258Z,98665.97
2023-11-24T17:33:42.665Z,98658.34
2023-11-24T17:38:46.397Z,98666.78
2023-11-24T17:43:51.457Z,98642.94
2023-11-24T17:48:55.227Z,98618.97
2023-11-24T17:53:59.202Z,98594.56
2023-11-24T17:59:04.725Z,98605.53
2023-11-24T18:04:08.551Z,98597.34
2023-11-24T18:09:11.978Z,98592.47
2023-11-24T18:14:18.890Z,98592.09
2023-11-24T18:19:22.169Z,98578.78
2023-11-24T18:24:26.496Z,98581.88
2023-11-24T18:29:31.355Z,98581.78
2023-11-24T18:34:34.668Z,98569.50
2023-11-24T18:39:37.994Z,98556.59
2023-11-24T18:44:42.813Z,98556.06
2023-11-24T18:49:46.560Z,98548.56
2023-11-24T18:54:50.129Z,98539.72
2023-11-24T18:59:54.864Z,98528.03
2023-11-24T19:04:58.602Z,98529.09
2023-11-24T19:10:02.480Z,98520.13
2023-11-24T19:20:41.292Z,98515.06
2023-11-24T19:25:45.214Z,98515.75
2023-11-24T19:30:53.121Z,98524.63
2023-11-24T19:35:56.779Z,98504.31
2023-11-24T19:41:00.029Z,98516.16
2023-11-24T19:46:06.000Z,98506.50
2023-11-24T19:51:10.096Z,98504.72
2023-11-24T19:56:14.816Z,98513.72
2023-11-24T20:01:29.207Z,98507.16
2023-11-24T20:06:33.509Z,98495.00
2023-11-24T20:11:37.452Z,98492.56
2023-11-24T20:16:43.420Z,98490.25
2023-11-24T20:21:47.128Z,98503.06
2023-11-24T20:26:50.638Z,98499.38
2023-11-24T20:31:55.716Z,98509.06
2023-11-24T20:36:59.056Z,98518.75
2023-11-24T20:42:02.316Z,98534.28
2023-11-24T20:47:09.347Z,98523.38
2023-11-24T20:52:12.749Z,98541.78
2023-11-24T20:57:16.208Z,98526.66
2023-11-24T21:02:21.709Z,98536.88
2023-11-24T21:07:25.473Z,98529.38
2023-11-24T21:12:29.509Z,98526.25
2023-11-24T21:17:34.281Z,98539.34
2023-11-24T21:22:38.040Z,98541.25
2023-11-24T21:27:41.291Z,98542.88
2023-11-24T21:32:46.681Z,98540.56
2023-11-24T21:37:50.583Z,98538.38
2023-11-24T21:42:55.264Z,98547.94
2023-11-24T21:47:59.965Z,98549.69
2023-11-24T21:53:03.398Z,98545.47
2023-11-24T21:58:06.878Z,98547.94
2023-11-24T22:03:11.714Z,98554.59
2023-11-24T22:08:15.765Z,98553.78
2023-11-24T22:13:19.043Z,98570.41
2023-11-24T22:18:23.849Z,98566.19
2023-11-24T22:23:29.981Z,98585.53
2023-11-24T22:28:34.075Z,98584.03
2023-11-24T22:33:38.896Z,98607.22
2023-11-24T22:38:42.255Z,98624.66
2023-11-24T22:43:45.551Z,98628.97
2023-11-24T22:48:50.634Z,98651.03
2023-11-24T22:53:54.436Z,98674.03
2023-11-24T22:58:59.994Z,98697.97
2023-11-24T23:04:06.425Z,98704.63
2023-11-24T23:09:09.815Z,98725.00
2023-11-24T23:14:13.091Z,98740.50
2023-11-24T23:19:17.863Z,98761.94
2023-11-24T23:24:21.199Z,98772.22
2023-11-24T23:29:25.030Z,98785.53
2023-11-24T23:34:29.712Z,98797.63
2023-11-24T23:39:35.684Z,98810.31
2023-11-24T23:44:38.988Z,98820.03
2023-11-24T23:49:44.415Z,98839.91
2023-11-24T23:54:47.739Z,98849.44
2023-11-24T23:59:52.063Z,98845.31
